02:32 Rennrad Moetz - Imst - Holzleiten Sattel - Telfs - Sagl - Rietz - Moetz
Ort Moetz Datum 24.10.2011 12:52:36
Kategorie Rennrad
Distanz 72,35 Kilometer Steigung 790,0 Meter Gefälle -790,0 Meter
Gesamt Zeit 02:47:53 Aktiv 02:47:53 Pause 00:00:00
Durchs. Tempo 28,6 km/h Tempo max. 60,3 km/h Tempo min. 7,6 km/h
Kalorien 0 Durchs. HF 133 BPM HF max. 171 BPM
Wetter 10 °C Clear
Ausrüstung Poison - Rennrad
Notiz Moetz - Imst - Holzleiten Sattel - Telfs - Sagl - Rietz - Moetz ... windig, GA1 ... garmin connect
Splits
Distanz (km) Gesamt Zeit Split Zeit Split Tempo Split Tempo Höhenprofil (m)
1,00 00:02:18 00:02:18 00:02:18 26,1 3,40
2,00 00:04:08 00:01:50 00:01:50 32,7 -1,40
3,00 00:20:09 00:16:01 00:16:01 3,7 -12,00
4,00 00:22:03 00:01:54 00:01:54 31,6 3,00
5,00 00:24:04 00:02:01 00:02:01 29,8 10,80
6,00 00:25:51 00:01:47 00:01:47 33,6 13,00
7,00 00:27:40 00:01:49 00:01:49 33,0 2,40
8,00 00:29:29 00:01:49 00:01:49 33,0 14,60
9,00 00:31:24 00:01:55 00:01:55 31,3 0,80
10,00 00:33:31 00:02:07 00:02:07 28,3 11,40
11,00 00:36:13 00:02:42 00:02:42 22,2 39,40
12,00 00:37:54 00:01:41 00:01:41 35,6 -4,00
13,00 00:39:44 00:01:50 00:01:50 32,7 6,80
14,00 00:41:10 00:01:26 00:01:26 41,9 -11,00
15,00 00:43:44 00:02:34 00:02:34 23,4 16,60
16,00 00:47:13 00:03:29 00:03:29 17,2 62,20
17,00 00:50:05 00:02:52 00:02:52 20,9 26,80
18,00 00:51:18 00:01:13 00:01:13 49,3 -17,60
19,00 00:52:39 00:01:21 00:01:21 44,4 -25,00
20,00 00:54:37 00:01:58 00:01:58 30,5 -23,00
21,00 00:57:01 00:02:24 00:02:24 25,0 -23,40
22,00 00:59:44 00:02:43 00:02:43 22,1 34,60
23,00 01:02:46 00:03:02 00:03:02 19,8 34,80
24,00 01:04:58 00:02:12 00:02:12 27,3 17,60
25,00 01:06:57 00:01:59 00:01:59 30,3 1,00
26,00 01:11:15 00:04:18 00:04:18 14,0 -25,80
27,00 01:13:19 00:02:04 00:02:04 29,0 9,40
28,00 01:15:31 00:02:12 00:02:12 27,3 20,20
29,00 01:17:20 00:01:49 00:01:49 33,0 -7,60
30,00 01:19:31 00:02:11 00:02:11 27,5 9,40
31,00 01:21:24 00:01:53 00:01:53 31,9 -7,00
32,00 01:23:31 00:02:07 00:02:07 28,3 -1,80
33,00 01:25:41 00:02:10 00:02:10 27,7 5,60
34,00 01:27:28 00:01:47 00:01:47 33,6 -15,20
35,00 01:30:21 00:02:53 00:02:53 20,8 27,00
36,00 01:34:24 00:04:03 00:04:03 14,8 57,00
37,00 01:38:18 00:03:54 00:03:54 15,4 51,60
38,00 01:42:12 00:03:54 00:03:54 15,4 53,60
39,00 01:45:48 00:03:36 00:03:36 16,7 43,20
40,00 01:48:57 00:03:09 00:03:09 19,0 27,40
41,00 01:52:23 00:03:26 00:03:26 17,5 38,20
42,00 01:53:51 00:01:28 00:01:28 40,9 -8,20
43,00 01:54:57 00:01:06 00:01:06 54,5 -42,00
44,00 01:56:30 00:01:33 00:01:33 38,7 -44,40
45,00 01:57:50 00:01:20 00:01:20 45,0 -29,60
46,00 01:58:58 00:01:08 00:01:08 52,9 -45,60
47,00 02:00:39 00:01:41 00:01:41 35,6 -48,60
48,00 02:02:34 00:01:55 00:01:55 31,3 -21,40
49,00 02:04:23 00:01:49 00:01:49 33,0 -10,60
50,00 02:06:07 00:01:44 00:01:44 34,6 -11,80
51,00 02:07:31 00:01:24 00:01:24 42,9 -20,60
52,00 02:08:54 00:01:23 00:01:23 43,4 -28,20
53,00 02:10:15 00:01:21 00:01:21 44,4 -30,20
54,00 02:11:39 00:01:24 00:01:24 42,9 -36,00
55,00 02:12:49 00:01:10 00:01:10 51,4 -38,60
56,00 02:14:49 00:02:00 00:02:00 30,0 -49,40
57,00 02:17:49 00:03:00 00:03:00 20,0 12,40
58,00 02:19:46 00:01:57 00:01:57 30,8 -11,80
59,00 02:21:20 00:01:34 00:01:34 38,3 -17,00
60,00 02:23:07 00:01:47 00:01:47 33,6 -20,00
61,00 02:24:58 00:01:51 00:01:51 32,4 -6,00
62,00 02:27:20 00:02:22 00:02:22 25,4 2,40
63,00 02:29:16 00:01:56 00:01:56 31,0 6,20
64,00 02:31:09 00:01:53 00:01:53 31,9 2,80
65,00 02:33:02 00:01:53 00:01:53 31,9 1,60
66,00 02:35:01 00:01:59 00:01:59 30,3 9,20
67,00 02:36:50 00:01:49 00:01:49 33,0 0,80
68,00 02:38:42 00:01:52 00:01:52 32,1 -3,80
69,00 02:40:35 00:01:53 00:01:53 31,9 -0,80
70,00 02:42:30 00:01:55 00:01:55 31,3 5,00
71,00 02:44:24 00:01:54 00:01:54 31,6 0,00
72,00 02:46:30 00:02:06 00:02:06 28,6 3,80